sensor_id;sensor_type;location;lat;lon;timestamp;P1;durP1;ratioP1;P2;durP2;ratioP2
19396;SDS011;9834;48.076;11.878;2022-08-20T00:00:39;5.67;;;5.00;;
19396;SDS011;9834;48.076;11.878;2022-08-20T00:03:13;7.00;;;6.30;;
19396;SDS011;9834;48.076;11.878;2022-08-20T00:05:43;8.97;;;7.10;;
19396;SDS011;9834;48.076;11.878;2022-08-20T00:08:13;8.93;;;7.77;;
19396;SDS011;9834;48.076;11.878;2022-08-20T00:10:41;9.20;;;8.27;;
19396;SDS011;9834;48.076;11.878;2022-08-20T00:13:11;8.63;;;7.43;;
19396;SDS011;9834;48.076;11.878;2022-08-20T00:15:41;8.30;;;7.50;;
19396;SDS011;9834;48.076;11.878;2022-08-20T00:18:08;10.17;;;7.77;;
19396;SDS011;9834;48.076;11.878;2022-08-20T00:20:37;9.00;;;8.20;;
19396;SDS011;9834;48.076;11.878;2022-08-20T00:23:07;6.27;;;5.27;;
19396;SDS011;9834;48.076;11.878;2022-08-20T00:25:35;6.83;;;6.17;;
19396;SDS011;9834;48.076;11.878;2022-08-20T00:28:04;5.23;;;4.63;;
19396;SDS011;9834;48.076;11.878;2022-08-20T00:30:32;3.83;;;3.40;;
19396;SDS011;9834;48.076;11.878;2022-08-20T00:33:02;5.83;;;2.53;;
19396;SDS011;9834;48.076;11.878;2022-08-20T00:35:32;2.47;;;2.27;;
19396;SDS011;9834;48.076;11.878;2022-08-20T00:38:04;2.80;;;2.37;;
19396;SDS011;9834;48.076;11.878;2022-08-20T00:40:33;1.73;;;1.40;;
19396;SDS011;9834;48.076;11.878;2022-08-20T00:43:04;1.93;;;1.77;;
19396;SDS011;9834;48.076;11.878;2022-08-20T00:45:48;2.90;;;1.53;;
19396;SDS011;9834;48.076;11.878;2022-08-20T00:48:19;3.77;;;1.70;;
19396;SDS011;9834;48.076;11.878;2022-08-20T00:50:46;1.33;;;1.23;;
19396;SDS011;9834;48.076;11.878;2022-08-20T00:53:13;4.30;;;2.93;;
19396;SDS011;9834;48.076;11.878;2022-08-20T00:55:42;3.03;;;2.83;;
19396;SDS011;9834;48.076;11.878;2022-08-20T00:58:10;3.53;;;3.07;;
19396;SDS011;9834;48.076;11.878;2022-08-20T01:00:38;2.00;;;1.80;;
19396;SDS011;9834;48.076;11.878;2022-08-20T01:03:09;2.77;;;2.50;;
19396;SDS011;9834;48.076;11.878;2022-08-20T01:05:41;2.83;;;2.23;;
19396;SDS011;9834;48.076;11.878;2022-08-20T01:08:10;2.10;;;1.77;;
19396;SDS011;9834;48.076;11.878;2022-08-20T01:10:39;1.63;;;1.27;;
19396;SDS011;9834;48.076;11.878;2022-08-20T01:13:10;2.50;;;0.97;;
19396;SDS011;9834;48.076;11.878;2022-08-20T01:15:46;1.37;;;1.27;;
19396;SDS011;9834;48.076;11.878;2022-08-20T01:18:18;1.20;;;1.10;;
19396;SDS011;9834;48.076;11.878;2022-08-20T01:20:47;1.87;;;1.13;;
19396;SDS011;9834;48.076;11.878;2022-08-20T01:23:19;1.20;;;1.10;;
19396;SDS011;9834;48.076;11.878;2022-08-20T01:25:53;2.60;;;2.10;;
19396;SDS011;9834;48.076;11.878;2022-08-20T01:28:25;2.67;;;2.47;;
19396;SDS011;9834;48.076;11.878;2022-08-20T01:30:58;2.37;;;1.93;;
19396;SDS011;9834;48.076;11.878;2022-08-20T01:33:25;2.40;;;1.83;;
19396;SDS011;9834;48.076;11.878;2022-08-20T01:35:52;2.47;;;1.90;;
19396;SDS011;9834;48.076;11.878;2022-08-20T01:38:22;2.97;;;2.23;;
19396;SDS011;9834;48.076;11.878;2022-08-20T01:40:53;2.10;;;1.90;;
19396;SDS011;9834;48.076;11.878;2022-08-20T01:43:32;2.57;;;2.37;;
19396;SDS011;9834;48.076;11.878;2022-08-20T01:45:59;1.50;;;1.40;;
19396;SDS011;9834;48.076;11.878;2022-08-20T01:48:27;1.70;;;1.60;;
19396;SDS011;9834;48.076;11.878;2022-08-20T01:50:55;3.20;;;2.53;;
19396;SDS011;9834;48.076;11.878;2022-08-20T01:53:29;2.83;;;2.53;;
19396;SDS011;9834;48.076;11.878;2022-08-20T01:55:58;2.10;;;1.90;;
19396;SDS011;9834;48.076;11.878;2022-08-20T01:58:27;2.57;;;2.33;;
19396;SDS011;9834;48.076;11.878;2022-08-20T02:00:55;3.03;;;2.77;;
19396;SDS011;9834;48.076;11.878;2022-08-20T02:03:22;5.23;;;2.70;;
19396;SDS011;9834;48.076;11.878;2022-08-20T02:05:50;3.60;;;3.07;;
19396;SDS011;9834;48.076;11.878;2022-08-20T02:08:20;2.80;;;2.53;;
19396;SDS011;9834;48.076;11.878;2022-08-20T02:10:47;3.67;;;3.07;;
19396;SDS011;9834;48.076;11.878;2022-08-20T02:13:16;5.47;;;3.77;;
19396;SDS011;9834;48.076;11.878;2022-08-20T02:15:43;4.63;;;3.77;;
19396;SDS011;9834;48.076;11.878;2022-08-20T02:18:11;10.37;;;8.63;;
19396;SDS011;9834;48.076;11.878;2022-08-20T02:20:40;11.57;;;8.03;;
19396;SDS011;9834;48.076;11.878;2022-08-20T02:23:08;10.37;;;8.97;;
19396;SDS011;9834;48.076;11.878;2022-08-20T02:25:37;8.77;;;7.93;;
19396;SDS011;9834;48.076;11.878;2022-08-20T02:28:07;8.87;;;7.73;;
19396;SDS011;9834;48.076;11.878;2022-08-20T02:30:38;10.33;;;9.23;;
19396;SDS011;9834;48.076;11.878;2022-08-20T02:33:08;8.97;;;8.03;;
19396;SDS011;9834;48.076;11.878;2022-08-20T02:35:38;10.73;;;8.77;;
19396;SDS011;9834;48.076;11.878;2022-08-20T02:38:06;11.00;;;9.20;;
19396;SDS011;9834;48.076;11.878;2022-08-20T02:40:34;13.20;;;10.53;;
19396;SDS011;9834;48.076;11.878;2022-08-20T02:43:01;17.50;;;12.67;;
19396;SDS011;9834;48.076;11.878;2022-08-20T02:45:30;15.07;;;11.07;;
19396;SDS011;9834;48.076;11.878;2022-08-20T02:48:09;14.80;;;12.90;;
19396;SDS011;9834;48.076;11.878;2022-08-20T02:50:41;15.50;;;12.10;;
19396;SDS011;9834;48.076;11.878;2022-08-20T02:53:09;12.67;;;11.37;;
19396;SDS011;9834;48.076;11.878;2022-08-20T02:55:36;18.07;;;13.83;;
19396;SDS011;9834;48.076;11.878;2022-08-20T02:58:03;17.67;;;13.43;;
19396;SDS011;9834;48.076;11.878;2022-08-20T03:00:31;16.97;;;13.43;;
19396;SDS011;9834;48.076;11.878;2022-08-20T03:02:58;18.97;;;13.43;;
19396;SDS011;9834;48.076;11.878;2022-08-20T03:05:29;18.90;;;13.93;;
19396;SDS011;9834;48.076;11.878;2022-08-20T03:07:56;20.03;;;14.03;;
19396;SDS011;9834;48.076;11.878;2022-08-20T03:10:24;21.00;;;16.23;;
19396;SDS011;9834;48.076;11.878;2022-08-20T03:12:53;15.40;;;12.10;;
19396;SDS011;9834;48.076;11.878;2022-08-20T03:15:20;20.87;;;13.87;;
19396;SDS011;9834;48.076;11.878;2022-08-20T03:17:47;20.23;;;15.17;;
19396;SDS011;9834;48.076;11.878;2022-08-20T03:20:14;23.40;;;14.17;;
19396;SDS011;9834;48.076;11.878;2022-08-20T03:22:43;18.13;;;14.07;;
19396;SDS011;9834;48.076;11.878;2022-08-20T03:25:10;16.43;;;12.77;;
19396;SDS011;9834;48.076;11.878;2022-08-20T03:27:37;16.73;;;14.30;;
19396;SDS011;9834;48.076;11.878;2022-08-20T03:30:10;17.80;;;14.57;;
19396;SDS011;9834;48.076;11.878;2022-08-20T03:32:41;20.37;;;14.60;;
19396;SDS011;9834;48.076;11.878;2022-08-20T03:35:10;17.20;;;13.13;;
19396;SDS011;9834;48.076;11.878;2022-08-20T03:37:39;19.67;;;14.00;;
19396;SDS011;9834;48.076;11.878;2022-08-20T03:40:09;16.70;;;11.83;;
19396;SDS011;9834;48.076;11.878;2022-08-20T03:42:38;17.87;;;14.63;;
19396;SDS011;9834;48.076;11.878;2022-08-20T03:45:06;19.17;;;14.33;;
19396;SDS011;9834;48.076;11.878;2022-08-20T03:47:35;19.27;;;15.60;;
19396;SDS011;9834;48.076;11.878;2022-08-20T03:50:03;19.17;;;14.70;;
19396;SDS011;9834;48.076;11.878;2022-08-20T03:52:32;21.20;;;15.23;;
19396;SDS011;9834;48.076;11.878;2022-08-20T03:54:59;16.30;;;14.27;;
19396;SDS011;9834;48.076;11.878;2022-08-20T03:57:27;19.80;;;15.87;;
19396;SDS011;9834;48.076;11.878;2022-08-20T03:59:54;19.13;;;13.67;;
19396;SDS011;9834;48.076;11.878;2022-08-20T04:02:24;16.33;;;14.60;;
19396;SDS011;9834;48.076;11.878;2022-08-20T04:04:52;19.60;;;15.40;;
19396;SDS011;9834;48.076;11.878;2022-08-20T04:07:21;18.10;;;14.73;;
19396;SDS011;9834;48.076;11.878;2022-08-20T04:09:51;22.47;;;14.57;;
19396;SDS011;9834;48.076;11.878;2022-08-20T04:12:19;20.90;;;15.60;;
19396;SDS011;9834;48.076;11.878;2022-08-20T04:14:51;17.10;;;13.40;;
19396;SDS011;9834;48.076;11.878;2022-08-20T04:17:19;20.50;;;15.10;;
19396;SDS011;9834;48.076;11.878;2022-08-20T04:19:49;19.87;;;14.87;;
19396;SDS011;9834;48.076;11.878;2022-08-20T04:22:18;18.33;;;13.90;;
19396;SDS011;9834;48.076;11.878;2022-08-20T04:24:45;18.23;;;14.43;;
19396;SDS011;9834;48.076;11.878;2022-08-20T04:27:13;19.67;;;14.33;;
19396;SDS011;9834;48.076;11.878;2022-08-20T04:29:40;18.50;;;15.00;;
19396;SDS011;9834;48.076;11.878;2022-08-20T04:32:10;21.80;;;15.47;;
19396;SDS011;9834;48.076;11.878;2022-08-20T04:34:40;20.20;;;15.00;;
19396;SDS011;9834;48.076;11.878;2022-08-20T04:37:08;19.97;;;14.50;;
19396;SDS011;9834;48.076;11.878;2022-08-20T04:39:38;15.97;;;13.53;;
19396;SDS011;9834;48.076;11.878;2022-08-20T04:42:05;16.40;;;14.33;;
19396;SDS011;9834;48.076;11.878;2022-08-20T04:44:31;21.33;;;14.70;;
19396;SDS011;9834;48.076;11.878;2022-08-20T04:46:58;24.97;;;15.43;;
19396;SDS011;9834;48.076;11.878;2022-08-20T04:49:37;21.13;;;15.17;;
19396;SDS011;9834;48.076;11.878;2022-08-20T04:52:04;20.23;;;15.83;;
19396;SDS011;9834;48.076;11.878;2022-08-20T04:54:31;14.83;;;13.27;;
19396;SDS011;9834;48.076;11.878;2022-08-20T04:57:04;18.23;;;15.20;;
19396;SDS011;9834;48.076;11.878;2022-08-20T04:59:32;21.77;;;13.70;;
19396;SDS011;9834;48.076;11.878;2022-08-20T05:01:59;23.20;;;15.63;;
19396;SDS011;9834;48.076;11.878;2022-08-20T05:04:27;16.17;;;13.37;;
19396;SDS011;9834;48.076;11.878;2022-08-20T05:06:55;19.03;;;13.03;;
19396;SDS011;9834;48.076;11.878;2022-08-20T05:09:22;18.03;;;13.47;;
19396;SDS011;9834;48.076;11.878;2022-08-20T05:11:52;20.60;;;14.97;;
19396;SDS011;9834;48.076;11.878;2022-08-20T05:14:19;21.00;;;14.30;;
19396;SDS011;9834;48.076;11.878;2022-08-20T05:16:46;18.53;;;13.60;;
19396;SDS011;9834;48.076;11.878;2022-08-20T05:19:14;22.00;;;14.67;;
19396;SDS011;9834;48.076;11.878;2022-08-20T05:21:47;18.43;;;14.83;;
19396;SDS011;9834;48.076;11.878;2022-08-20T05:24:19;18.43;;;13.80;;
19396;SDS011;9834;48.076;11.878;2022-08-20T05:26:46;20.93;;;14.53;;
19396;SDS011;9834;48.076;11.878;2022-08-20T05:29:13;17.10;;;13.93;;
19396;SDS011;9834;48.076;11.878;2022-08-20T05:31:40;16.77;;;13.37;;
19396;SDS011;9834;48.076;11.878;2022-08-20T05:34:10;19.40;;;14.37;;
19396;SDS011;9834;48.076;11.878;2022-08-20T05:36:37;18.03;;;13.50;;
19396;SDS011;9834;48.076;11.878;2022-08-20T05:39:09;18.93;;;13.23;;
19396;SDS011;9834;48.076;11.878;2022-08-20T05:41:38;18.37;;;14.17;;
19396;SDS011;9834;48.076;11.878;2022-08-20T05:44:06;21.27;;;14.77;;
19396;SDS011;9834;48.076;11.878;2022-08-20T05:46:38;15.10;;;12.80;;
19396;SDS011;9834;48.076;11.878;2022-08-20T05:49:07;17.83;;;14.33;;
19396;SDS011;9834;48.076;11.878;2022-08-20T05:51:36;21.03;;;12.67;;
19396;SDS011;9834;48.076;11.878;2022-08-20T05:54:05;17.20;;;13.33;;
19396;SDS011;9834;48.076;11.878;2022-08-20T05:56:32;19.47;;;14.57;;
19396;SDS011;9834;48.076;11.878;2022-08-20T05:59:04;18.40;;;13.10;;
19396;SDS011;9834;48.076;11.878;2022-08-20T06:01:34;18.97;;;14.20;;
19396;SDS011;9834;48.076;11.878;2022-08-20T06:04:02;19.50;;;14.27;;
19396;SDS011;9834;48.076;11.878;2022-08-20T06:06:47;17.07;;;13.73;;
19396;SDS011;9834;48.076;11.878;2022-08-20T06:09:17;17.23;;;13.50;;
19396;SDS011;9834;48.076;11.878;2022-08-20T06:11:45;16.00;;;11.33;;
19396;SDS011;9834;48.076;11.878;2022-08-20T06:14:13;13.20;;;11.80;;
19396;SDS011;9834;48.076;11.878;2022-08-20T06:16:41;15.33;;;12.73;;
19396;SDS011;9834;48.076;11.878;2022-08-20T06:19:09;18.10;;;12.23;;
19396;SDS011;9834;48.076;11.878;2022-08-20T06:21:36;16.00;;;11.70;;
19396;SDS011;9834;48.076;11.878;2022-08-20T06:24:04;14.77;;;11.07;;
19396;SDS011;9834;48.076;11.878;2022-08-20T06:26:32;14.33;;;11.73;;
19396;SDS011;9834;48.076;11.878;2022-08-20T06:28:59;21.83;;;13.70;;
19396;SDS011;9834;48.076;11.878;2022-08-20T06:31:28;17.20;;;12.53;;
19396;SDS011;9834;48.076;11.878;2022-08-20T06:33:55;16.00;;;13.10;;
19396;SDS011;9834;48.076;11.878;2022-08-20T06:36:22;15.87;;;12.23;;
19396;SDS011;9834;48.076;11.878;2022-08-20T06:38:50;15.10;;;12.13;;
19396;SDS011;9834;48.076;11.878;2022-08-20T06:41:18;15.97;;;12.17;;
19396;SDS011;9834;48.076;11.878;2022-08-20T06:43:45;15.63;;;12.33;;
19396;SDS011;9834;48.076;11.878;2022-08-20T06:46:13;17.23;;;12.20;;
19396;SDS011;9834;48.076;11.878;2022-08-20T06:48:41;16.23;;;13.27;;
19396;SDS011;9834;48.076;11.878;2022-08-20T06:51:10;13.27;;;10.63;;
19396;SDS011;9834;48.076;11.878;2022-08-20T06:53:39;13.70;;;12.23;;
19396;SDS011;9834;48.076;11.878;2022-08-20T06:56:06;17.10;;;12.83;;
19396;SDS011;9834;48.076;11.878;2022-08-20T06:58:33;14.17;;;11.57;;
19396;SDS011;9834;48.076;11.878;2022-08-20T07:01:02;18.10;;;12.20;;
19396;SDS011;9834;48.076;11.878;2022-08-20T07:03:29;13.57;;;11.90;;
19396;SDS011;9834;48.076;11.878;2022-08-20T07:05:57;15.00;;;12.20;;
19396;SDS011;9834;48.076;11.878;2022-08-20T07:08:24;16.00;;;11.40;;
19396;SDS011;9834;48.076;11.878;2022-08-20T07:10:52;13.67;;;11.97;;
19396;SDS011;9834;48.076;11.878;2022-08-20T07:13:19;15.07;;;12.23;;
19396;SDS011;9834;48.076;11.878;2022-08-20T07:15:46;13.90;;;11.07;;
19396;SDS011;9834;48.076;11.878;2022-08-20T07:18:14;16.00;;;11.00;;
19396;SDS011;9834;48.076;11.878;2022-08-20T07:20:41;16.27;;;10.77;;
19396;SDS011;9834;48.076;11.878;2022-08-20T07:23:10;15.90;;;11.50;;
19396;SDS011;9834;48.076;11.878;2022-08-20T07:25:37;13.03;;;10.70;;
19396;SDS011;9834;48.076;11.878;2022-08-20T07:28:06;14.77;;;10.07;;
19396;SDS011;9834;48.076;11.878;2022-08-20T07:30:39;11.80;;;9.77;;
19396;SDS011;9834;48.076;11.878;2022-08-20T07:33:24;10.83;;;9.77;;
19396;SDS011;9834;48.076;11.878;2022-08-20T07:35:54;11.07;;;9.03;;
19396;SDS011;9834;48.076;11.878;2022-08-20T07:38:23;12.63;;;9.93;;
19396;SDS011;9834;48.076;11.878;2022-08-20T07:40:51;14.13;;;10.63;;
19396;SDS011;9834;48.076;11.878;2022-08-20T07:43:20;13.70;;;10.30;;
19396;SDS011;9834;48.076;11.878;2022-08-20T07:45:48;13.97;;;10.63;;
19396;SDS011;9834;48.076;11.878;2022-08-20T07:48:20;13.23;;;10.67;;
19396;SDS011;9834;48.076;11.878;2022-08-20T07:50:48;11.93;;;10.57;;
19396;SDS011;9834;48.076;11.878;2022-08-20T07:53:15;14.93;;;11.23;;
19396;SDS011;9834;48.076;11.878;2022-08-20T07:55:44;12.13;;;9.77;;
19396;SDS011;9834;48.076;11.878;2022-08-20T07:58:11;11.33;;;10.07;;
19396;SDS011;9834;48.076;11.878;2022-08-20T08:00:41;13.87;;;10.40;;
19396;SDS011;9834;48.076;11.878;2022-08-20T08:06:34;14.70;;;9.77;;
19396;SDS011;9834;48.076;11.878;2022-08-20T08:09:02;16.37;;;11.50;;
19396;SDS011;9834;48.076;11.878;2022-08-20T08:11:35;12.00;;;9.70;;
19396;SDS011;9834;48.076;11.878;2022-08-20T08:14:09;15.77;;;10.77;;
19396;SDS011;9834;48.076;11.878;2022-08-20T08:16:39;12.13;;;10.27;;
19396;SDS011;9834;48.076;11.878;2022-08-20T08:19:11;10.73;;;9.10;;
19396;SDS011;9834;48.076;11.878;2022-08-20T08:21:41;10.03;;;9.07;;
19396;SDS011;9834;48.076;11.878;2022-08-20T08:24:08;12.17;;;10.33;;
19396;SDS011;9834;48.076;11.878;2022-08-20T08:26:40;12.77;;;10.67;;
19396;SDS011;9834;48.076;11.878;2022-08-20T08:29:07;11.70;;;9.87;;
19396;SDS011;9834;48.076;11.878;2022-08-20T08:31:34;14.53;;;11.07;;
19396;SDS011;9834;48.076;11.878;2022-08-20T08:34:05;14.53;;;11.63;;
19396;SDS011;9834;48.076;11.878;2022-08-20T08:36:34;11.17;;;9.67;;
19396;SDS011;9834;48.076;11.878;2022-08-20T08:39:02;17.47;;;11.67;;
19396;SDS011;9834;48.076;11.878;2022-08-20T08:41:30;17.20;;;11.60;;
19396;SDS011;9834;48.076;11.878;2022-08-20T08:44:03;12.80;;;9.73;;
19396;SDS011;9834;48.076;11.878;2022-08-20T08:46:34;12.50;;;10.07;;
19396;SDS011;9834;48.076;11.878;2022-08-20T08:49:05;12.33;;;9.53;;
19396;SDS011;9834;48.076;11.878;2022-08-20T08:51:36;10.73;;;9.63;;
19396;SDS011;9834;48.076;11.878;2022-08-20T08:54:07;15.27;;;11.67;;
19396;SDS011;9834;48.076;11.878;2022-08-20T09:00:17;13.97;;;10.77;;
19396;SDS011;9834;48.076;11.878;2022-08-20T09:02:53;11.73;;;10.20;;
19396;SDS011;9834;48.076;11.878;2022-08-20T09:05:25;12.40;;;11.17;;
19396;SDS011;9834;48.076;11.878;2022-08-20T09:07:57;14.07;;;11.43;;
19396;SDS011;9834;48.076;11.878;2022-08-20T09:10:31;17.40;;;12.07;;
19396;SDS011;9834;48.076;11.878;2022-08-20T09:12:58;11.77;;;10.43;;
19396;SDS011;9834;48.076;11.878;2022-08-20T09:15:27;13.00;;;10.00;;
19396;SDS011;9834;48.076;11.878;2022-08-20T09:17:57;11.73;;;10.27;;
19396;SDS011;9834;48.076;11.878;2022-08-20T09:20:24;11.50;;;10.27;;
19396;SDS011;9834;48.076;11.878;2022-08-20T09:22:54;13.27;;;11.63;;
19396;SDS011;9834;48.076;11.878;2022-08-20T09:25:21;13.30;;;9.97;;
19396;SDS011;9834;48.076;11.878;2022-08-20T09:27:48;15.47;;;11.80;;
19396;SDS011;9834;48.076;11.878;2022-08-20T09:30:15;14.03;;;9.50;;
19396;SDS011;9834;48.076;11.878;2022-08-20T09:32:44;15.40;;;11.13;;
19396;SDS011;9834;48.076;11.878;2022-08-20T09:35:11;12.83;;;10.73;;
19396;SDS011;9834;48.076;11.878;2022-08-20T09:37:39;14.27;;;11.43;;
19396;SDS011;9834;48.076;11.878;2022-08-20T09:40:07;11.87;;;10.00;;
19396;SDS011;9834;48.076;11.878;2022-08-20T09:42:36;10.63;;;9.60;;
19396;SDS011;9834;48.076;11.878;2022-08-20T09:45:04;11.70;;;8.47;;
19396;SDS011;9834;48.076;11.878;2022-08-20T09:47:32;8.80;;;7.03;;
19396;SDS011;9834;48.076;11.878;2022-08-20T09:50:01;5.77;;;5.13;;
19396;SDS011;9834;48.076;11.878;2022-08-20T09:52:31;5.37;;;4.90;;
19396;SDS011;9834;48.076;11.878;2022-08-20T09:55:03;7.93;;;6.47;;
19396;SDS011;9834;48.076;11.878;2022-08-20T09:57:35;5.73;;;5.23;;
19396;SDS011;9834;48.076;11.878;2022-08-20T10:00:03;5.40;;;4.90;;
19396;SDS011;9834;48.076;11.878;2022-08-20T10:02:33;6.17;;;5.57;;
19396;SDS011;9834;48.076;11.878;2022-08-20T10:05:02;7.50;;;6.87;;
19396;SDS011;9834;48.076;11.878;2022-08-20T10:07:31;13.10;;;10.20;;
19396;SDS011;9834;48.076;11.878;2022-08-20T10:09:59;12.57;;;9.73;;
19396;SDS011;9834;48.076;11.878;2022-08-20T10:12:25;13.90;;;9.87;;
19396;SDS011;9834;48.076;11.878;2022-08-20T10:14:52;13.27;;;9.90;;
19396;SDS011;9834;48.076;11.878;2022-08-20T10:17:20;14.10;;;9.53;;
19396;SDS011;9834;48.076;11.878;2022-08-20T10:19:50;11.40;;;9.70;;
19396;SDS011;9834;48.076;11.878;2022-08-20T10:22:18;14.03;;;10.33;;
19396;SDS011;9834;48.076;11.878;2022-08-20T10:24:46;11.17;;;9.70;;
19396;SDS011;9834;48.076;11.878;2022-08-20T10:27:15;11.73;;;9.93;;
19396;SDS011;9834;48.076;11.878;2022-08-20T10:29:44;12.20;;;10.50;;
19396;SDS011;9834;48.076;11.878;2022-08-20T10:32:12;8.37;;;7.53;;
19396;SDS011;9834;48.076;11.878;2022-08-20T10:34:41;16.37;;;10.10;;
19396;SDS011;9834;48.076;11.878;2022-08-20T10:37:13;12.13;;;9.50;;
19396;SDS011;9834;48.076;11.878;2022-08-20T10:39:46;10.80;;;9.23;;
19396;SDS011;9834;48.076;11.878;2022-08-20T10:42:23;21.50;;;10.63;;
19396;SDS011;9834;48.076;11.878;2022-08-20T10:44:52;10.97;;;9.33;;
19396;SDS011;9834;48.076;11.878;2022-08-20T10:47:21;13.87;;;10.17;;
19396;SDS011;9834;48.076;11.878;2022-08-20T10:49:56;11.47;;;9.20;;
19396;SDS011;9834;48.076;11.878;2022-08-20T10:52:25;17.07;;;9.60;;
19396;SDS011;9834;48.076;11.878;2022-08-20T10:54:54;17.97;;;11.50;;
19396;SDS011;9834;48.076;11.878;2022-08-20T10:57:22;14.33;;;8.80;;
19396;SDS011;9834;48.076;11.878;2022-08-20T10:59:51;9.20;;;8.33;;
19396;SDS011;9834;48.076;11.878;2022-08-20T11:02:24;14.40;;;11.40;;
19396;SDS011;9834;48.076;11.878;2022-08-20T11:04:52;12.80;;;10.77;;
19396;SDS011;9834;48.076;11.878;2022-08-20T11:07:23;11.33;;;10.00;;
19396;SDS011;9834;48.076;11.878;2022-08-20T11:10:00;11.07;;;9.33;;
19396;SDS011;9834;48.076;11.878;2022-08-20T11:12:29;11.00;;;9.63;;
19396;SDS011;9834;48.076;11.878;2022-08-20T11:14:58;13.80;;;10.33;;
19396;SDS011;9834;48.076;11.878;2022-08-20T11:17:26;11.80;;;9.60;;
19396;SDS011;9834;48.076;11.878;2022-08-20T11:20:00;15.27;;;10.43;;
19396;SDS011;9834;48.076;11.878;2022-08-20T11:22:29;11.00;;;8.40;;
19396;SDS011;9834;48.076;11.878;2022-08-20T11:24:56;11.53;;;9.63;;
19396;SDS011;9834;48.076;11.878;2022-08-20T11:27:26;10.10;;;8.57;;
19396;SDS011;9834;48.076;11.878;2022-08-20T11:29:55;9.20;;;8.20;;
19396;SDS011;9834;48.076;11.878;2022-08-20T11:32:28;9.47;;;8.47;;
19396;SDS011;9834;48.076;11.878;2022-08-20T11:34:55;10.83;;;9.17;;
19396;SDS011;9834;48.076;11.878;2022-08-20T11:37:25;13.03;;;9.73;;
19396;SDS011;9834;48.076;11.878;2022-08-20T11:39:54;12.40;;;9.73;;
19396;SDS011;9834;48.076;11.878;2022-08-20T11:42:21;9.57;;;8.60;;
19396;SDS011;9834;48.076;11.878;2022-08-20T11:44:52;14.00;;;9.63;;
19396;SDS011;9834;48.076;11.878;2022-08-20T11:47:19;12.83;;;9.43;;
19396;SDS011;9834;48.076;11.878;2022-08-20T11:53:12;9.57;;;8.47;;
19396;SDS011;9834;48.076;11.878;2022-08-20T11:55:40;12.80;;;11.23;;
19396;SDS011;9834;48.076;11.878;2022-08-20T11:58:09;12.95;;;8.93;;
19396;SDS011;9834;48.076;11.878;2022-08-20T12:00:37;11.00;;;8.32;;
19396;SDS011;9834;48.076;11.878;2022-08-20T12:03:05;8.60;;;7.68;;
19396;SDS011;9834;48.076;11.878;2022-08-20T12:05:33;14.07;;;9.85;;
19396;SDS011;9834;48.076;11.878;2022-08-20T12:08:00;11.40;;;9.35;;
19396;SDS011;9834;48.076;11.878;2022-08-20T12:10:27;9.63;;;8.65;;
19396;SDS011;9834;48.076;11.878;2022-08-20T12:12:58;11.32;;;9.98;;
19396;SDS011;9834;48.076;11.878;2022-08-20T12:15:25;14.82;;;9.57;;
19396;SDS011;9834;48.076;11.878;2022-08-20T12:17:53;12.93;;;9.05;;
19396;SDS011;9834;48.076;11.878;2022-08-20T12:20:21;9.93;;;8.98;;
19396;SDS011;9834;48.076;11.878;2022-08-20T12:22:49;10.27;;;8.43;;
19396;SDS011;9834;48.076;11.878;2022-08-20T12:25:16;8.88;;;7.97;;
19396;SDS011;9834;48.076;11.878;2022-08-20T12:27:44;7.85;;;6.78;;
19396;SDS011;9834;48.076;11.878;2022-08-20T12:30:13;8.57;;;7.07;;
19396;SDS011;9834;48.076;11.878;2022-08-20T12:32:42;9.40;;;8.50;;
19396;SDS011;9834;48.076;11.878;2022-08-20T12:35:11;10.77;;;8.23;;
19396;SDS011;9834;48.076;11.878;2022-08-20T12:37:39;9.20;;;8.05;;
19396;SDS011;9834;48.076;11.878;2022-08-20T12:40:08;10.57;;;9.48;;
19396;SDS011;9834;48.076;11.878;2022-08-20T12:42:39;8.63;;;7.72;;
19396;SDS011;9834;48.076;11.878;2022-08-20T12:45:09;10.32;;;9.25;;
19396;SDS011;9834;48.076;11.878;2022-08-20T12:47:37;9.18;;;8.32;;
19396;SDS011;9834;48.076;11.878;2022-08-20T12:50:09;12.32;;;9.40;;
19396;SDS011;9834;48.076;11.878;2022-08-20T12:52:42;12.23;;;10.53;;
19396;SDS011;9834;48.076;11.878;2022-08-20T12:55:16;10.88;;;9.07;;
19396;SDS011;9834;48.076;11.878;2022-08-20T12:57:45;11.57;;;10.30;;
19396;SDS011;9834;48.076;11.878;2022-08-20T13:00:16;9.18;;;8.25;;
19396;SDS011;9834;48.076;11.878;2022-08-20T13:02:46;11.15;;;9.73;;
19396;SDS011;9834;48.076;11.878;2022-08-20T13:05:15;12.77;;;9.52;;
19396;SDS011;9834;48.076;11.878;2022-08-20T13:07:42;9.60;;;8.52;;
19396;SDS011;9834;48.076;11.878;2022-08-20T13:10:14;10.68;;;9.65;;
19396;SDS011;9834;48.076;11.878;2022-08-20T13:12:43;13.73;;;8.35;;
19396;SDS011;9834;48.076;11.878;2022-08-20T13:15:10;10.25;;;7.88;;
19396;SDS011;9834;48.076;11.878;2022-08-20T13:17:37;9.55;;;8.48;;
19396;SDS011;9834;48.076;11.878;2022-08-20T13:20:05;9.30;;;7.03;;
19396;SDS011;9834;48.076;11.878;2022-08-20T13:22:36;9.98;;;8.93;;
19396;SDS011;9834;48.076;11.878;2022-08-20T13:25:03;8.95;;;7.10;;
19396;SDS011;9834;48.076;11.878;2022-08-20T13:27:30;7.43;;;5.97;;
19396;SDS011;9834;48.076;11.878;2022-08-20T13:29:58;6.80;;;6.10;;
19396;SDS011;9834;48.076;11.878;2022-08-20T13:32:26;5.70;;;5.20;;
19396;SDS011;9834;48.076;11.878;2022-08-20T13:34:57;4.10;;;3.70;;
19396;SDS011;9834;48.076;11.878;2022-08-20T13:37:27;4.13;;;3.83;;
19396;SDS011;9834;48.076;11.878;2022-08-20T13:39:56;4.13;;;3.72;;
19396;SDS011;9834;48.076;11.878;2022-08-20T13:42:25;5.05;;;4.47;;
19396;SDS011;9834;48.076;11.878;2022-08-20T13:44:53;4.10;;;3.30;;
19396;SDS011;9834;48.076;11.878;2022-08-20T13:47:21;4.05;;;3.17;;
19396;SDS011;9834;48.076;11.878;2022-08-20T13:49:53;5.03;;;4.18;;
19396;SDS011;9834;48.076;11.878;2022-08-20T13:52:21;3.45;;;3.03;;
19396;SDS011;9834;48.076;11.878;2022-08-20T13:54:49;3.10;;;2.88;;
19396;SDS011;9834;48.076;11.878;2022-08-20T13:57:18;3.17;;;2.78;;
19396;SDS011;9834;48.076;11.878;2022-08-20T13:59:49;5.45;;;3.55;;
19396;SDS011;9834;48.076;11.878;2022-08-20T14:02:18;3.58;;;3.33;;
19396;SDS011;9834;48.076;11.878;2022-08-20T14:04:46;6.07;;;3.28;;
19396;SDS011;9834;48.076;11.878;2022-08-20T14:07:14;3.58;;;3.28;;
19396;SDS011;9834;48.076;11.878;2022-08-20T14:09:43;3.05;;;2.85;;
19396;SDS011;9834;48.076;11.878;2022-08-20T14:12:14;3.42;;;3.13;;
19396;SDS011;9834;48.076;11.878;2022-08-20T14:14:43;3.92;;;3.05;;
19396;SDS011;9834;48.076;11.878;2022-08-20T14:17:12;3.13;;;2.90;;
19396;SDS011;9834;48.076;11.878;2022-08-20T14:19:40;3.17;;;2.95;;
19396;SDS011;9834;48.076;11.878;2022-08-20T14:22:07;4.35;;;3.60;;
19396;SDS011;9834;48.076;11.878;2022-08-20T14:24:37;3.92;;;3.65;;
19396;SDS011;9834;48.076;11.878;2022-08-20T14:27:04;3.92;;;3.30;;
19396;SDS011;9834;48.076;11.878;2022-08-20T14:29:34;3.22;;;2.97;;
19396;SDS011;9834;48.076;11.878;2022-08-20T14:32:03;4.13;;;3.75;;
19396;SDS011;9834;48.076;11.878;2022-08-20T14:34:31;3.50;;;3.20;;
19396;SDS011;9834;48.076;11.878;2022-08-20T14:37:08;3.75;;;3.45;;
19396;SDS011;9834;48.076;11.878;2022-08-20T14:39:36;3.35;;;3.05;;
19396;SDS011;9834;48.076;11.878;2022-08-20T14:42:04;3.40;;;3.13;;
19396;SDS011;9834;48.076;11.878;2022-08-20T14:44:31;6.65;;;3.00;;
19396;SDS011;9834;48.076;11.878;2022-08-20T14:47:09;3.70;;;3.40;;
19396;SDS011;9834;48.076;11.878;2022-08-20T14:49:37;3.42;;;3.13;;
19396;SDS011;9834;48.076;11.878;2022-08-20T14:52:05;3.95;;;3.65;;
19396;SDS011;9834;48.076;11.878;2022-08-20T14:54:32;3.95;;;3.55;;